sensor_id;sensor_type;location;lat;lon;timestamp;P1;durP1;ratioP1;P2;durP2;ratioP2
4001;SDS011;2015;48.670;9.060;2023-03-03T00:00:49;53.43;;;32.00;;
4001;SDS011;2015;48.670;9.060;2023-03-03T00:03:23;60.53;;;32.90;;
4001;SDS011;2015;48.670;9.060;2023-03-03T00:05:56;57.33;;;32.00;;
4001;SDS011;2015;48.670;9.060;2023-03-03T00:08:29;54.23;;;31.80;;
4001;SDS011;2015;48.670;9.060;2023-03-03T00:11:02;55.67;;;31.27;;
4001;SDS011;2015;48.670;9.060;2023-03-03T00:18:53;49.30;;;29.40;;
4001;SDS011;2015;48.670;9.060;2023-03-03T00:21:27;50.97;;;30.93;;
4001;SDS011;2015;48.670;9.060;2023-03-03T00:24:19;65.10;;;30.40;;
4001;SDS011;2015;48.670;9.060;2023-03-03T00:26:54;53.87;;;31.53;;
4001;SDS011;2015;48.670;9.060;2023-03-03T00:29:32;53.23;;;31.50;;
4001;SDS011;2015;48.670;9.060;2023-03-03T00:34:45;61.33;;;32.47;;
4001;SDS011;2015;48.670;9.060;2023-03-03T00:37:30;60.73;;;32.70;;
4001;SDS011;2015;48.670;9.060;2023-03-03T00:42:44;58.80;;;32.63;;
4001;SDS011;2015;48.670;9.060;2023-03-03T00:45:25;59.20;;;32.10;;
4001;SDS011;2015;48.670;9.060;2023-03-03T00:48:00;63.00;;;32.17;;
4001;SDS011;2015;48.670;9.060;2023-03-03T00:51:00;62.53;;;37.55;;
4001;SDS011;2015;48.670;9.060;2023-03-03T00:53:36;53.43;;;30.57;;
4001;SDS011;2015;48.670;9.060;2023-03-03T00:56:08;54.13;;;31.10;;
4001;SDS011;2015;48.670;9.060;2023-03-03T00:58:40;57.70;;;31.50;;
4001;SDS011;2015;48.670;9.060;2023-03-03T01:01:12;51.07;;;29.23;;
4001;SDS011;2015;48.670;9.060;2023-03-03T01:03:45;51.57;;;32.50;;
4001;SDS011;2015;48.670;9.060;2023-03-03T01:06:16;62.40;;;31.07;;
4001;SDS011;2015;48.670;9.060;2023-03-03T01:08:48;58.30;;;29.67;;
4001;SDS011;2015;48.670;9.060;2023-03-03T01:11:20;66.30;;;31.70;;
4001;SDS011;2015;48.670;9.060;2023-03-03T01:13:55;61.60;;;32.17;;
4001;SDS011;2015;48.670;9.060;2023-03-03T01:16:27;58.13;;;32.57;;
4001;SDS011;2015;48.670;9.060;2023-03-03T01:18:59;57.57;;;31.30;;
4001;SDS011;2015;48.670;9.060;2023-03-03T01:21:31;57.60;;;33.53;;
4001;SDS011;2015;48.670;9.060;2023-03-03T01:24:02;65.25;;;36.83;;
4001;SDS011;2015;48.670;9.060;2023-03-03T01:26:34;62.20;;;33.57;;
4001;SDS011;2015;48.670;9.060;2023-03-03T01:29:06;56.90;;;32.00;;
4001;SDS011;2015;48.670;9.060;2023-03-03T01:31:38;61.87;;;36.80;;
4001;SDS011;2015;48.670;9.060;2023-03-03T01:34:10;60.67;;;35.30;;
4001;SDS011;2015;48.670;9.060;2023-03-03T01:36:42;53.77;;;30.43;;
4001;SDS011;2015;48.670;9.060;2023-03-03T01:39:14;56.83;;;32.73;;
4001;SDS011;2015;48.670;9.060;2023-03-03T01:41:46;57.70;;;32.33;;
4001;SDS011;2015;48.670;9.060;2023-03-03T01:44:17;58.73;;;33.07;;
4001;SDS011;2015;48.670;9.060;2023-03-03T01:47:06;56.63;;;32.07;;
4001;SDS011;2015;48.670;9.060;2023-03-03T01:50:08;60.33;;;31.50;;
4001;SDS011;2015;48.670;9.060;2023-03-03T01:52:44;57.33;;;31.37;;
4001;SDS011;2015;48.670;9.060;2023-03-03T01:55:19;65.03;;;34.73;;
4001;SDS011;2015;48.670;9.060;2023-03-03T01:58:06;52.60;;;30.00;;
4001;SDS011;2015;48.670;9.060;2023-03-03T02:00:49;59.37;;;32.43;;
4001;SDS011;2015;48.670;9.060;2023-03-03T02:03:23;62.23;;;37.97;;
4001;SDS011;2015;48.670;9.060;2023-03-03T02:05:56;62.73;;;33.63;;
4001;SDS011;2015;48.670;9.060;2023-03-03T02:08:38;55.60;;;32.33;;
4001;SDS011;2015;48.670;9.060;2023-03-03T02:11:24;62.23;;;32.50;;
4001;SDS011;2015;48.670;9.060;2023-03-03T02:13:57;63.20;;;32.57;;
4001;SDS011;2015;48.670;9.060;2023-03-03T02:16:29;65.33;;;34.00;;
4001;SDS011;2015;48.670;9.060;2023-03-03T02:19:02;65.10;;;35.10;;
4001;SDS011;2015;48.670;9.060;2023-03-03T02:21:38;70.97;;;34.80;;
4001;SDS011;2015;48.670;9.060;2023-03-03T02:26:50;57.60;;;33.70;;
4001;SDS011;2015;48.670;9.060;2023-03-03T02:29:22;71.70;;;34.03;;
4001;SDS011;2015;48.670;9.060;2023-03-03T02:31:54;61.77;;;34.40;;
4001;SDS011;2015;48.670;9.060;2023-03-03T02:34:26;65.00;;;35.53;;
4001;SDS011;2015;48.670;9.060;2023-03-03T02:36:58;66.70;;;34.00;;
4001;SDS011;2015;48.670;9.060;2023-03-03T02:39:29;71.88;;;37.25;;
4001;SDS011;2015;48.670;9.060;2023-03-03T02:42:08;70.43;;;36.63;;
4001;SDS011;2015;48.670;9.060;2023-03-03T02:44:51;71.67;;;36.93;;
4001;SDS011;2015;48.670;9.060;2023-03-03T02:47:24;66.47;;;32.73;;
4001;SDS011;2015;48.670;9.060;2023-03-03T02:49:55;59.53;;;31.17;;
4001;SDS011;2015;48.670;9.060;2023-03-03T02:52:27;65.67;;;34.77;;
4001;SDS011;2015;48.670;9.060;2023-03-03T02:54:59;61.80;;;35.40;;
4001;SDS011;2015;48.670;9.060;2023-03-03T02:57:31;65.27;;;35.33;;
4001;SDS011;2015;48.670;9.060;2023-03-03T03:00:02;72.50;;;34.30;;
4001;SDS011;2015;48.670;9.060;2023-03-03T03:02:35;67.17;;;34.47;;
4001;SDS011;2015;48.670;9.060;2023-03-03T03:05:07;65.20;;;34.10;;
4001;SDS011;2015;48.670;9.060;2023-03-03T03:07:40;68.83;;;33.60;;
4001;SDS011;2015;48.670;9.060;2023-03-03T03:10:12;58.40;;;33.40;;
4001;SDS011;2015;48.670;9.060;2023-03-03T03:12:43;58.70;;;34.73;;
4001;SDS011;2015;48.670;9.060;2023-03-03T03:15:15;63.00;;;33.40;;
4001;SDS011;2015;48.670;9.060;2023-03-03T03:17:47;67.03;;;35.70;;
4001;SDS011;2015;48.670;9.060;2023-03-03T03:20:19;69.27;;;34.60;;
4001;SDS011;2015;48.670;9.060;2023-03-03T03:22:50;71.67;;;36.87;;
4001;SDS011;2015;48.670;9.060;2023-03-03T03:25:22;64.60;;;35.13;;
4001;SDS011;2015;48.670;9.060;2023-03-03T03:27:54;63.93;;;32.73;;
4001;SDS011;2015;48.670;9.060;2023-03-03T03:30:26;66.30;;;32.03;;
4001;SDS011;2015;48.670;9.060;2023-03-03T03:32:58;63.90;;;34.83;;
4001;SDS011;2015;48.670;9.060;2023-03-03T03:35:30;72.03;;;39.00;;
4001;SDS011;2015;48.670;9.060;2023-03-03T03:38:03;73.33;;;38.73;;
4001;SDS011;2015;48.670;9.060;2023-03-03T03:40:35;66.10;;;34.90;;
4001;SDS011;2015;48.670;9.060;2023-03-03T03:43:07;74.07;;;38.37;;
4001;SDS011;2015;48.670;9.060;2023-03-03T03:45:41;74.27;;;35.60;;
4001;SDS011;2015;48.670;9.060;2023-03-03T03:48:13;70.17;;;35.03;;
4001;SDS011;2015;48.670;9.060;2023-03-03T03:50:47;61.33;;;34.70;;
4001;SDS011;2015;48.670;9.060;2023-03-03T03:53:19;66.50;;;37.20;;
4001;SDS011;2015;48.670;9.060;2023-03-03T03:55:51;70.57;;;35.57;;
4001;SDS011;2015;48.670;9.060;2023-03-03T03:58:23;67.20;;;38.00;;
4001;SDS011;2015;48.670;9.060;2023-03-03T04:00:54;60.50;;;34.53;;
4001;SDS011;2015;48.670;9.060;2023-03-03T04:03:35;64.20;;;36.07;;
4001;SDS011;2015;48.670;9.060;2023-03-03T04:06:07;69.93;;;35.27;;
4001;SDS011;2015;48.670;9.060;2023-03-03T04:08:39;72.55;;;38.80;;
4001;SDS011;2015;48.670;9.060;2023-03-03T04:11:11;76.10;;;42.53;;
4001;SDS011;2015;48.670;9.060;2023-03-03T04:13:43;67.77;;;38.37;;
4001;SDS011;2015;48.670;9.060;2023-03-03T04:16:14;52.03;;;33.77;;
4001;SDS011;2015;48.670;9.060;2023-03-03T04:18:46;60.03;;;35.63;;
4001;SDS011;2015;48.670;9.060;2023-03-03T04:21:18;66.67;;;33.20;;
4001;SDS011;2015;48.670;9.060;2023-03-03T04:23:50;69.57;;;33.83;;
4001;SDS011;2015;48.670;9.060;2023-03-03T04:26:23;55.77;;;32.60;;
4001;SDS011;2015;48.670;9.060;2023-03-03T04:28:55;61.10;;;34.13;;
4001;SDS011;2015;48.670;9.060;2023-03-03T04:31:27;66.20;;;34.20;;
4001;SDS011;2015;48.670;9.060;2023-03-03T04:33:59;68.97;;;35.23;;
4001;SDS011;2015;48.670;9.060;2023-03-03T04:36:30;64.60;;;35.70;;
4001;SDS011;2015;48.670;9.060;2023-03-03T04:39:02;66.20;;;36.37;;
4001;SDS011;2015;48.670;9.060;2023-03-03T04:41:34;65.03;;;34.43;;
4001;SDS011;2015;48.670;9.060;2023-03-03T04:44:06;64.30;;;33.80;;
4001;SDS011;2015;48.670;9.060;2023-03-03T04:46:37;64.37;;;33.10;;
4001;SDS011;2015;48.670;9.060;2023-03-03T04:49:09;55.87;;;33.37;;
4001;SDS011;2015;48.670;9.060;2023-03-03T04:51:42;69.03;;;32.77;;
4001;SDS011;2015;48.670;9.060;2023-03-03T04:54:14;66.63;;;36.40;;
4001;SDS011;2015;48.670;9.060;2023-03-03T04:56:46;54.83;;;32.77;;
4001;SDS011;2015;48.670;9.060;2023-03-03T04:59:17;68.50;;;35.40;;
4001;SDS011;2015;48.670;9.060;2023-03-03T05:01:49;62.93;;;33.47;;
4001;SDS011;2015;48.670;9.060;2023-03-03T05:04:21;57.63;;;32.00;;
4001;SDS011;2015;48.670;9.060;2023-03-03T05:06:53;63.93;;;35.27;;
4001;SDS011;2015;48.670;9.060;2023-03-03T05:09:25;52.63;;;32.33;;
4001;SDS011;2015;48.670;9.060;2023-03-03T05:11:56;65.70;;;34.50;;
4001;SDS011;2015;48.670;9.060;2023-03-03T05:14:28;63.93;;;35.17;;
4001;SDS011;2015;48.670;9.060;2023-03-03T05:17:02;58.13;;;33.50;;
4001;SDS011;2015;48.670;9.060;2023-03-03T05:19:34;61.97;;;36.17;;
4001;SDS011;2015;48.670;9.060;2023-03-03T05:22:06;59.07;;;35.23;;
4001;SDS011;2015;48.670;9.060;2023-03-03T05:24:38;61.43;;;34.57;;
4001;SDS011;2015;48.670;9.060;2023-03-03T05:27:10;57.87;;;35.13;;
4001;SDS011;2015;48.670;9.060;2023-03-03T05:29:42;60.57;;;35.83;;
4001;SDS011;2015;48.670;9.060;2023-03-03T05:32:13;68.83;;;37.50;;
4001;SDS011;2015;48.670;9.060;2023-03-03T05:34:46;57.83;;;33.97;;
4001;SDS011;2015;48.670;9.060;2023-03-03T05:37:17;68.00;;;35.70;;
4001;SDS011;2015;48.670;9.060;2023-03-03T05:39:49;66.13;;;33.50;;
4001;SDS011;2015;48.670;9.060;2023-03-03T05:42:21;64.33;;;35.13;;
4001;SDS011;2015;48.670;9.060;2023-03-03T05:44:53;61.30;;;32.90;;
4001;SDS011;2015;48.670;9.060;2023-03-03T05:47:25;65.20;;;37.70;;
4001;SDS011;2015;48.670;9.060;2023-03-03T05:49:56;58.40;;;35.77;;
4001;SDS011;2015;48.670;9.060;2023-03-03T05:52:28;60.73;;;35.97;;
4001;SDS011;2015;48.670;9.060;2023-03-03T05:55:00;64.13;;;34.30;;
4001;SDS011;2015;48.670;9.060;2023-03-03T05:57:32;59.77;;;34.60;;
4001;SDS011;2015;48.670;9.060;2023-03-03T06:00:04;67.72;;;36.75;;
4001;SDS011;2015;48.670;9.060;2023-03-03T06:02:36;67.00;;;38.20;;
4001;SDS011;2015;48.670;9.060;2023-03-03T06:05:08;57.87;;;34.83;;
4001;SDS011;2015;48.670;9.060;2023-03-03T06:07:40;61.23;;;34.10;;
4001;SDS011;2015;48.670;9.060;2023-03-03T06:10:12;55.60;;;33.73;;
4001;SDS011;2015;48.670;9.060;2023-03-03T06:12:44;58.00;;;33.93;;
4001;SDS011;2015;48.670;9.060;2023-03-03T06:15:16;64.83;;;33.70;;
4001;SDS011;2015;48.670;9.060;2023-03-03T06:17:48;59.77;;;32.73;;
4001;SDS011;2015;48.670;9.060;2023-03-03T06:20:20;63.40;;;35.27;;
4001;SDS011;2015;48.670;9.060;2023-03-03T06:22:52;60.77;;;34.63;;
4001;SDS011;2015;48.670;9.060;2023-03-03T06:25:23;76.53;;;36.97;;
4001;SDS011;2015;48.670;9.060;2023-03-03T06:27:55;59.60;;;32.53;;
4001;SDS011;2015;48.670;9.060;2023-03-03T06:30:28;65.60;;;33.57;;
4001;SDS011;2015;48.670;9.060;2023-03-03T06:33:00;57.43;;;32.63;;
4001;SDS011;2015;48.670;9.060;2023-03-03T06:35:32;58.10;;;33.93;;
4001;SDS011;2015;48.670;9.060;2023-03-03T06:38:04;61.80;;;34.63;;
4001;SDS011;2015;48.670;9.060;2023-03-03T06:40:36;60.20;;;33.30;;
4001;SDS011;2015;48.670;9.060;2023-03-03T06:43:07;55.80;;;34.80;;
4001;SDS011;2015;48.670;9.060;2023-03-03T06:45:40;59.73;;;35.70;;
4001;SDS011;2015;48.670;9.060;2023-03-03T06:48:11;57.20;;;31.87;;
4001;SDS011;2015;48.670;9.060;2023-03-03T06:50:43;56.63;;;33.17;;
4001;SDS011;2015;48.670;9.060;2023-03-03T06:53:16;59.60;;;34.20;;
4001;SDS011;2015;48.670;9.060;2023-03-03T06:55:49;67.13;;;36.13;;
4001;SDS011;2015;48.670;9.060;2023-03-03T06:58:21;66.33;;;35.20;;
4001;SDS011;2015;48.670;9.060;2023-03-03T07:00:58;58.97;;;34.70;;
4001;SDS011;2015;48.670;9.060;2023-03-03T07:03:34;65.93;;;35.20;;
4001;SDS011;2015;48.670;9.060;2023-03-03T07:06:39;72.83;;;36.23;;
4001;SDS011;2015;48.670;9.060;2023-03-03T07:09:05;59.57;;;33.43;;
4001;SDS011;2015;48.670;9.060;2023-03-03T07:11:43;59.57;;;31.70;;
4001;SDS011;2015;48.670;9.060;2023-03-03T07:14:17;89.57;;;47.40;;
4001;SDS011;2015;48.670;9.060;2023-03-03T07:16:55;88.17;;;47.47;;
4001;SDS011;2015;48.670;9.060;2023-03-03T07:19:32;73.73;;;35.50;;
4001;SDS011;2015;48.670;9.060;2023-03-03T07:22:15;70.83;;;38.63;;
4001;SDS011;2015;48.670;9.060;2023-03-03T07:24:56;60.77;;;35.63;;
4001;SDS011;2015;48.670;9.060;2023-03-03T07:27:32;67.67;;;36.40;;
4001;SDS011;2015;48.670;9.060;2023-03-03T07:32:42;123.33;;;40.80;;
4001;SDS011;2015;48.670;9.060;2023-03-03T07:35:28;88.73;;;34.20;;
4001;SDS011;2015;48.670;9.060;2023-03-03T07:41:16;63.00;;;33.43;;
4001;SDS011;2015;48.670;9.060;2023-03-03T07:46:36;66.70;;;35.47;;
4001;SDS011;2015;48.670;9.060;2023-03-03T07:49:21;60.28;;;33.85;;
4001;SDS011;2015;48.670;9.060;2023-03-03T07:51:54;63.43;;;34.30;;
4001;SDS011;2015;48.670;9.060;2023-03-03T08:00:03;72.77;;;36.83;;
4001;SDS011;2015;48.670;9.060;2023-03-03T08:05:42;65.07;;;36.50;;
4001;SDS011;2015;48.670;9.060;2023-03-03T08:08:27;72.00;;;35.13;;
4001;SDS011;2015;48.670;9.060;2023-03-03T08:11:01;68.90;;;38.10;;
4001;SDS011;2015;48.670;9.060;2023-03-03T08:18:44;69.83;;;34.80;;
4001;SDS011;2015;48.670;9.060;2023-03-03T08:21:19;58.77;;;31.93;;
4001;SDS011;2015;48.670;9.060;2023-03-03T08:23:52;62.73;;;37.60;;
4001;SDS011;2015;48.670;9.060;2023-03-03T08:26:24;50.70;;;31.00;;
4001;SDS011;2015;48.670;9.060;2023-03-03T08:28:57;55.40;;;33.30;;
4001;SDS011;2015;48.670;9.060;2023-03-03T08:31:29;46.57;;;30.20;;
4001;SDS011;2015;48.670;9.060;2023-03-03T08:34:11;58.17;;;30.80;;
4001;SDS011;2015;48.670;9.060;2023-03-03T08:36:43;75.40;;;30.60;;
4001;SDS011;2015;48.670;9.060;2023-03-03T08:39:17;49.80;;;28.23;;
4001;SDS011;2015;48.670;9.060;2023-03-03T08:41:49;59.55;;;34.53;;
4001;SDS011;2015;48.670;9.060;2023-03-03T08:44:20;58.03;;;32.20;;
4001;SDS011;2015;48.670;9.060;2023-03-03T08:46:52;57.80;;;34.27;;
4001;SDS011;2015;48.670;9.060;2023-03-03T08:49:24;59.67;;;35.33;;
4001;SDS011;2015;48.670;9.060;2023-03-03T08:51:56;59.17;;;37.63;;
4001;SDS011;2015;48.670;9.060;2023-03-03T08:54:28;54.17;;;34.78;;
4001;SDS011;2015;48.670;9.060;2023-03-03T08:57:00;53.57;;;34.37;;
4001;SDS011;2015;48.670;9.060;2023-03-03T08:59:31;62.17;;;34.47;;
4001;SDS011;2015;48.670;9.060;2023-03-03T09:02:07;160.97;;;91.50;;
4001;SDS011;2015;48.670;9.060;2023-03-03T09:04:39;59.20;;;36.03;;
4001;SDS011;2015;48.670;9.060;2023-03-03T09:07:11;64.90;;;37.93;;
4001;SDS011;2015;48.670;9.060;2023-03-03T09:09:43;61.95;;;39.10;;
4001;SDS011;2015;48.670;9.060;2023-03-03T09:12:20;63.57;;;38.33;;
4001;SDS011;2015;48.670;9.060;2023-03-03T09:14:59;58.37;;;39.73;;
4001;SDS011;2015;48.670;9.060;2023-03-03T09:17:37;53.30;;;33.00;;
4001;SDS011;2015;48.670;9.060;2023-03-03T09:20:31;65.63;;;33.67;;
4001;SDS011;2015;48.670;9.060;2023-03-03T09:25:52;54.13;;;36.20;;
4001;SDS011;2015;48.670;9.060;2023-03-03T09:28:26;66.07;;;33.37;;
4001;SDS011;2015;48.670;9.060;2023-03-03T09:31:01;76.27;;;35.33;;
4001;SDS011;2015;48.670;9.060;2023-03-03T09:33:41;56.30;;;31.20;;
4001;SDS011;2015;48.670;9.060;2023-03-03T09:36:26;55.70;;;34.97;;
4001;SDS011;2015;48.670;9.060;2023-03-03T09:38:59;65.07;;;33.83;;
4001;SDS011;2015;48.670;9.060;2023-03-03T09:47:27;52.57;;;31.47;;
4001;SDS011;2015;48.670;9.060;2023-03-03T09:55:57;55.43;;;31.03;;
4001;SDS011;2015;48.670;9.060;2023-03-03T09:58:52;58.30;;;33.13;;
4001;SDS011;2015;48.670;9.060;2023-03-03T10:10:36;52.83;;;31.43;;
4001;SDS011;2015;48.670;9.060;2023-03-03T10:13:25;55.57;;;31.90;;
4001;SDS011;2015;48.670;9.060;2023-03-03T10:16:28;46.03;;;30.27;;
4001;SDS011;2015;48.670;9.060;2023-03-03T10:22:28;48.37;;;32.33;;
4001;SDS011;2015;48.670;9.060;2023-03-03T10:25:14;44.77;;;31.33;;
4001;SDS011;2015;48.670;9.060;2023-03-03T10:27:56;45.63;;;29.63;;
4001;SDS011;2015;48.670;9.060;2023-03-03T10:48:44;46.17;;;29.33;;
4001;SDS011;2015;48.670;9.060;2023-03-03T10:51:28;45.53;;;29.50;;
4001;SDS011;2015;48.670;9.060;2023-03-03T11:06:10;45.00;;;27.90;;
4001;SDS011;2015;48.670;9.060;2023-03-03T11:14:21;41.07;;;28.63;;
4001;SDS011;2015;48.670;9.060;2023-03-03T11:17:11;45.47;;;30.57;;
4001;SDS011;2015;48.670;9.060;2023-03-03T11:25:46;39.60;;;26.83;;
4001;SDS011;2015;48.670;9.060;2023-03-03T11:28:31;48.10;;;29.90;;
4001;SDS011;2015;48.670;9.060;2023-03-03T11:37:21;43.50;;;29.13;;
4001;SDS011;2015;48.670;9.060;2023-03-03T11:39:58;44.13;;;28.40;;
4001;SDS011;2015;48.670;9.060;2023-03-03T11:45:43;41.73;;;27.80;;
4001;SDS011;2015;48.670;9.060;2023-03-03T11:48:32;43.17;;;28.63;;
4001;SDS011;2015;48.670;9.060;2023-03-03T11:54:14;42.13;;;28.73;;
4001;SDS011;2015;48.670;9.060;2023-03-03T11:57:39;41.90;;;28.13;;
4001;SDS011;2015;48.670;9.060;2023-03-03T12:03:41;45.33;;;27.20;;
4001;SDS011;2015;48.670;9.060;2023-03-03T12:09:25;46.17;;;27.63;;
4001;SDS011;2015;48.670;9.060;2023-03-03T12:25:46;47.77;;;29.90;;
4001;SDS011;2015;48.670;9.060;2023-03-03T12:28:57;41.72;;;28.92;;
4001;SDS011;2015;48.670;9.060;2023-03-03T12:37:14;50.90;;;30.23;;
4001;SDS011;2015;48.670;9.060;2023-03-03T12:40:12;47.13;;;29.40;;
4001;SDS011;2015;48.670;9.060;2023-03-03T12:45:50;55.13;;;30.73;;
4001;SDS011;2015;48.670;9.060;2023-03-03T12:48:37;45.63;;;29.33;;
4001;SDS011;2015;48.670;9.060;2023-03-03T12:54:02;43.87;;;27.63;;
4001;SDS011;2015;48.670;9.060;2023-03-03T12:56:44;39.60;;;29.13;;
4001;SDS011;2015;48.670;9.060;2023-03-03T12:59:46;47.17;;;29.10;;
4001;SDS011;2015;48.670;9.060;2023-03-03T13:02:48;42.90;;;29.03;;
4001;SDS011;2015;48.670;9.060;2023-03-03T13:10:55;44.97;;;29.27;;
4001;SDS011;2015;48.670;9.060;2023-03-03T13:13:43;41.30;;;28.10;;
4001;SDS011;2015;48.670;9.060;2023-03-03T13:16:29;45.42;;;28.08;;
4001;SDS011;2015;48.670;9.060;2023-03-03T13:19:15;46.80;;;28.53;;
4001;SDS011;2015;48.670;9.060;2023-03-03T13:22:17;41.70;;;26.60;;
4001;SDS011;2015;48.670;9.060;2023-03-03T13:28:04;42.23;;;27.40;;
4001;SDS011;2015;48.670;9.060;2023-03-03T13:30:46;45.70;;;28.67;;
4001;SDS011;2015;48.670;9.060;2023-03-03T13:33:27;39.07;;;25.30;;
4001;SDS011;2015;48.670;9.060;2023-03-03T13:36:09;38.50;;;26.33;;
4001;SDS011;2015;48.670;9.060;2023-03-03T13:38:47;44.13;;;27.13;;
4001;SDS011;2015;48.670;9.060;2023-03-03T13:44:21;44.20;;;26.77;;
4001;SDS011;2015;48.670;9.060;2023-03-03T13:52:38;41.27;;;26.80;;
4001;SDS011;2015;48.670;9.060;2023-03-03T13:55:39;44.30;;;26.07;;
4001;SDS011;2015;48.670;9.060;2023-03-03T14:01:50;43.50;;;25.97;;
4001;SDS011;2015;48.670;9.060;2023-03-03T14:05:15;47.03;;;26.37;;
4001;SDS011;2015;48.670;9.060;2023-03-03T14:19:41;37.97;;;27.00;;
4001;SDS011;2015;48.670;9.060;2023-03-03T14:22:24;38.97;;;25.73;;
4001;SDS011;2015;48.670;9.060;2023-03-03T14:25:06;43.90;;;27.80;;
4001;SDS011;2015;48.670;9.060;2023-03-03T14:27:50;45.23;;;27.80;;
4001;SDS011;2015;48.670;9.060;2023-03-03T14:30:44;39.70;;;25.40;;
4001;SDS011;2015;48.670;9.060;2023-03-03T14:33:17;44.03;;;27.37;;
4001;SDS011;2015;48.670;9.060;2023-03-03T14:35:59;48.20;;;26.27;;
4001;SDS011;2015;48.670;9.060;2023-03-03T14:38:36;47.17;;;28.77;;
4001;SDS011;2015;48.670;9.060;2023-03-03T14:43:45;46.60;;;28.70;;
4001;SDS011;2015;48.670;9.060;2023-03-03T14:49:27;49.87;;;28.57;;
4001;SDS011;2015;48.670;9.060;2023-03-03T14:54:47;44.80;;;26.57;;
4001;SDS011;2015;48.670;9.060;2023-03-03T15:05:57;42.40;;;27.10;;
4001;SDS011;2015;48.670;9.060;2023-03-03T15:08:32;43.63;;;25.70;;
4001;SDS011;2015;48.670;9.060;2023-03-03T15:13:43;49.23;;;27.17;;
4001;SDS011;2015;48.670;9.060;2023-03-03T15:16:22;48.97;;;26.77;;
4001;SDS011;2015;48.670;9.060;2023-03-03T15:21:51;44.63;;;28.07;;
4001;SDS011;2015;48.670;9.060;2023-03-03T15:27:25;46.25;;;27.42;;
4001;SDS011;2015;48.670;9.060;2023-03-03T15:30:14;44.07;;;26.97;;
4001;SDS011;2015;48.670;9.060;2023-03-03T15:33:04;48.80;;;28.40;;
4001;SDS011;2015;48.670;9.060;2023-03-03T15:47:53;48.70;;;28.10;;
4001;SDS011;2015;48.670;9.060;2023-03-03T15:53:53;52.97;;;30.07;;
4001;SDS011;2015;48.670;9.060;2023-03-03T16:10:27;40.70;;;25.77;;
4001;SDS011;2015;48.670;9.060;2023-03-03T16:19:33;44.57;;;27.77;;
4001;SDS011;2015;48.670;9.060;2023-03-03T16:27:42;56.03;;;28.20;;
4001;SDS011;2015;48.670;9.060;2023-03-03T16:30:24;44.23;;;27.83;;
4001;SDS011;2015;48.670;9.060;2023-03-03T16:33:10;36.33;;;25.20;;
4001;SDS011;2015;48.670;9.060;2023-03-03T16:38:36;43.77;;;26.07;;
4001;SDS011;2015;48.670;9.060;2023-03-03T16:41:11;41.50;;;26.10;;
4001;SDS011;2015;48.670;9.060;2023-03-03T16:46:44;46.23;;;24.97;;
4001;SDS011;2015;48.670;9.060;2023-03-03T16:49:22;40.67;;;24.90;;
4001;SDS011;2015;48.670;9.060;2023-03-03T16:52:16;41.80;;;24.90;;
4001;SDS011;2015;48.670;9.060;2023-03-03T16:54:58;39.13;;;24.87;;
4001;SDS011;2015;48.670;9.060;2023-03-03T17:00:26;48.30;;;26.23;;
4001;SDS011;2015;48.670;9.060;2023-03-03T17:03:30;48.00;;;25.50;;
4001;SDS011;2015;48.670;9.060;2023-03-03T17:06:05;44.70;;;25.80;;
4001;SDS011;2015;48.670;9.060;2023-03-03T17:17:26;43.70;;;28.13;;
4001;SDS011;2015;48.670;9.060;2023-03-03T17:20:36;45.35;;;28.05;;
4001;SDS011;2015;48.670;9.060;2023-03-03T17:23:14;46.67;;;28.37;;
4001;SDS011;2015;48.670;9.060;2023-03-03T17:25:49;40.47;;;24.20;;
4001;SDS011;2015;48.670;9.060;2023-03-03T17:34:37;49.80;;;26.60;;
4001;SDS011;2015;48.670;9.060;2023-03-03T17:37:16;46.43;;;26.40;;
4001;SDS011;2015;48.670;9.060;2023-03-03T17:45:46;43.70;;;25.67;;
4001;SDS011;2015;48.670;9.060;2023-03-03T17:48:28;46.07;;;25.40;;
4001;SDS011;2015;48.670;9.060;2023-03-03T17:57:13;45.17;;;26.60;;
4001;SDS011;2015;48.670;9.060;2023-03-03T18:05:33;45.10;;;26.80;;
4001;SDS011;2015;48.670;9.060;2023-03-03T18:17:01;48.10;;;27.23;;
4001;SDS011;2015;48.670;9.060;2023-03-03T18:22:54;57.20;;;27.47;;
4001;SDS011;2015;48.670;9.060;2023-03-03T18:28:46;52.10;;;29.57;;
4001;SDS011;2015;48.670;9.060;2023-03-03T18:31:23;55.57;;;28.60;;
4001;SDS011;2015;48.670;9.060;2023-03-03T18:36:52;48.80;;;27.73;;
4001;SDS011;2015;48.670;9.060;2023-03-03T18:42:29;51.80;;;27.70;;
4001;SDS011;2015;48.670;9.060;2023-03-03T18:48:24;42.97;;;25.47;;
4001;SDS011;2015;48.670;9.060;2023-03-03T18:50:46;48.73;;;26.50;;
4001;SDS011;2015;48.670;9.060;2023-03-03T18:53:29;53.13;;;29.70;;
4001;SDS011;2015;48.670;9.060;2023-03-03T18:56:08;52.93;;;28.80;;
4001;SDS011;2015;48.670;9.060;2023-03-03T18:58:41;47.90;;;27.53;;
4001;SDS011;2015;48.670;9.060;2023-03-03T19:01:32;54.77;;;28.60;;
4001;SDS011;2015;48.670;9.060;2023-03-03T19:16:01;61.23;;;32.50;;
4001;SDS011;2015;48.670;9.060;2023-03-03T19:18:34;56.85;;;32.42;;
4001;SDS011;2015;48.670;9.060;2023-03-03T19:23:54;58.87;;;32.10;;
4001;SDS011;2015;48.670;9.060;2023-03-03T19:26:48;57.17;;;32.63;;
4001;SDS011;2015;48.670;9.060;2023-03-03T19:41:28;60.80;;;31.20;;
4001;SDS011;2015;48.670;9.060;2023-03-03T19:57:02;62.97;;;34.53;;
4001;SDS011;2015;48.670;9.060;2023-03-03T20:07:28;54.63;;;31.90;;
4001;SDS011;2015;48.670;9.060;2023-03-03T20:18:53;61.97;;;35.73;;
4001;SDS011;2015;48.670;9.060;2023-03-03T20:21:32;68.77;;;34.73;;
4001;SDS011;2015;48.670;9.060;2023-03-03T20:29:42;64.33;;;36.80;;
4001;SDS011;2015;48.670;9.060;2023-03-03T20:53:00;81.00;;;37.80;;
4001;SDS011;2015;48.670;9.060;2023-03-03T20:55:41;65.03;;;37.67;;
4001;SDS011;2015;48.670;9.060;2023-03-03T20:58:40;68.00;;;38.90;;
4001;SDS011;2015;48.670;9.060;2023-03-03T21:04:19;66.73;;;36.67;;
4001;SDS011;2015;48.670;9.060;2023-03-03T21:06:53;72.80;;;41.13;;
4001;SDS011;2015;48.670;9.060;2023-03-03T21:15:01;74.53;;;37.93;;
4001;SDS011;2015;48.670;9.060;2023-03-03T21:18:23;64.83;;;36.60;;
4001;SDS011;2015;48.670;9.060;2023-03-03T21:20:56;69.57;;;36.20;;
4001;SDS011;2015;48.670;9.060;2023-03-03T21:23:29;76.80;;;38.00;;
4001;SDS011;2015;48.670;9.060;2023-03-03T21:26:01;75.87;;;38.77;;
4001;SDS011;2015;48.670;9.060;2023-03-03T21:28:33;71.17;;;41.20;;
4001;SDS011;2015;48.670;9.060;2023-03-03T21:31:06;72.77;;;37.77;;
4001;SDS011;2015;48.670;9.060;2023-03-03T21:41:54;65.80;;;38.50;;
4001;SDS011;2015;48.670;9.060;2023-03-03T21:44:37;64.20;;;38.37;;
4001;SDS011;2015;48.670;9.060;2023-03-03T21:47:21;72.43;;;36.53;;
4001;SDS011;2015;48.670;9.060;2023-03-03T21:49:54;74.80;;;39.20;;
4001;SDS011;2015;48.670;9.060;2023-03-03T21:52:25;71.50;;;39.70;;
4001;SDS011;2015;48.670;9.060;2023-03-03T21:54:57;71.87;;;39.93;;
4001;SDS011;2015;48.670;9.060;2023-03-03T21:57:29;68.00;;;37.80;;
4001;SDS011;2015;48.670;9.060;2023-03-03T22:00:02;70.27;;;38.57;;
4001;SDS011;2015;48.670;9.060;2023-03-03T22:02:35;83.10;;;42.17;;
4001;SDS011;2015;48.670;9.060;2023-03-03T22:05:07;76.20;;;39.57;;
4001;SDS011;2015;48.670;9.060;2023-03-03T22:07:39;77.47;;;39.23;;
4001;SDS011;2015;48.670;9.060;2023-03-03T22:10:11;71.67;;;40.30;;
4001;SDS011;2015;48.670;9.060;2023-03-03T22:12:43;81.10;;;38.93;;
4001;SDS011;2015;48.670;9.060;2023-03-03T22:15:15;71.37;;;38.90;;
4001;SDS011;2015;48.670;9.060;2023-03-03T22:17:46;61.57;;;35.97;;
4001;SDS011;2015;48.670;9.060;2023-03-03T22:20:18;77.43;;;39.60;;
4001;SDS011;2015;48.670;9.060;2023-03-03T22:22:50;75.03;;;39.10;;
4001;SDS011;2015;48.670;9.060;2023-03-03T22:25:22;74.33;;;38.90;;
4001;SDS011;2015;48.670;9.060;2023-03-03T22:27:54;66.80;;;38.03;;
4001;SDS011;2015;48.670;9.060;2023-03-03T22:30:25;62.43;;;37.47;;
4001;SDS011;2015;48.670;9.060;2023-03-03T22:32:57;79.23;;;36.97;;
4001;SDS011;2015;48.670;9.060;2023-03-03T22:35:29;70.13;;;41.70;;
4001;SDS011;2015;48.670;9.060;2023-03-03T22:38:01;66.27;;;38.50;;